sensor_id;sensor_type;location;lat;lon;timestamp;pressure;altitude;pressure_sealevel;temperature;humidity
53340;BME280;46212;50.258;19.062;2023-11-19T00:01:07;98987.72;;;1.57;90.06
53340;BME280;46212;50.258;19.062;2023-11-19T00:03:33;98983.78;;;1.41;90.28
53340;BME280;46212;50.258;19.062;2023-11-19T00:05:59;98980.28;;;1.40;90.43
53340;BME280;46212;50.258;19.062;2023-11-19T00:08:24;98985.75;;;1.47;90.28
53340;BME280;46212;50.258;19.062;2023-11-19T00:10:50;98990.03;;;1.52;90.23
53340;BME280;46212;50.258;19.062;2023-11-19T00:13:16;98988.09;;;1.56;90.27
53340;BME280;46212;50.258;19.062;2023-11-19T00:15:41;98983.84;;;1.58;90.05
53340;BME280;46212;50.258;19.062;2023-11-19T00:18:07;98979.94;;;1.67;90.02
53340;BME280;46212;50.258;19.062;2023-11-19T00:20:32;98969.03;;;1.56;89.75
53340;BME280;46212;50.258;19.062;2023-11-19T00:22:58;98971.38;;;1.68;89.77
53340;BME280;46212;50.258;19.062;2023-11-19T00:25:23;98978.41;;;1.73;89.52
53340;BME280;46212;50.258;19.062;2023-11-19T00:27:49;98967.13;;;1.71;89.33
53340;BME280;46212;50.258;19.062;2023-11-19T00:30:16;98967.91;;;1.68;89.64
53340;BME280;46212;50.258;19.062;2023-11-19T00:32:42;98955.03;;;1.50;89.47
53340;BME280;46212;50.258;19.062;2023-11-19T00:35:08;98964.75;;;1.44;89.88
53340;BME280;46212;50.258;19.062;2023-11-19T00:37:35;98965.91;;;1.50;89.53
53340;BME280;46212;50.258;19.062;2023-11-19T00:40:01;98962.06;;;1.58;89.58
53340;BME280;46212;50.258;19.062;2023-11-19T00:42:30;98960.88;;;1.59;89.43
53340;BME280;46212;50.258;19.062;2023-11-19T00:44:55;98964.38;;;1.42;90.29
53340;BME280;46212;50.258;19.062;2023-11-19T00:47:21;98961.25;;;1.47;89.14
53340;BME280;46212;50.258;19.062;2023-11-19T00:49:49;98967.09;;;1.42;89.59
53340;BME280;46212;50.258;19.062;2023-11-19T00:52:16;98969.03;;;1.42;89.58
53340;BME280;46212;50.258;19.062;2023-11-19T00:54:41;98965.56;;;1.70;89.49
53340;BME280;46212;50.258;19.062;2023-11-19T00:57:06;98967.50;;;1.55;89.03
53340;BME280;46212;50.258;19.062;2023-11-19T00:59:32;98954.66;;;1.48;89.28
53340;BME280;46212;50.258;19.062;2023-11-19T01:01:58;98940.59;;;1.22;90.00
53340;BME280;46212;50.258;19.062;2023-11-19T01:04:24;98964.38;;;1.42;90.27
53340;BME280;46212;50.258;19.062;2023-11-19T01:06:49;98968.22;;;1.31;90.24
53340;BME280;46212;50.258;19.062;2023-11-19T01:09:15;98962.00;;;1.27;90.60
53340;BME280;46212;50.258;19.062;2023-11-19T01:11:40;98962.00;;;1.27;90.97
53340;BME280;46212;50.258;19.062;2023-11-19T01:14:06;98953.44;;;1.28;90.53
53340;BME280;46212;50.258;19.062;2023-11-19T01:16:31;98942.16;;;1.26;91.25
53340;BME280;46212;50.258;19.062;2023-11-19T01:18:56;98939.44;;;1.33;90.17
53340;BME280;46212;50.258;19.062;2023-11-19T01:21:22;98922.00;;;1.45;89.35
53340;BME280;46212;50.258;19.062;2023-11-19T01:23:47;98920.41;;;1.26;89.38
53340;BME280;46212;50.258;19.062;2023-11-19T01:26:13;98934.34;;;1.07;89.33
53340;BME280;46212;50.258;19.062;2023-11-19T01:28:39;98928.06;;;0.92;90.51
53340;BME280;46212;50.258;19.062;2023-11-19T01:31:05;98923.47;;;1.11;90.05
53340;BME280;46212;50.258;19.062;2023-11-19T01:33:35;98926.16;;;1.00;89.71
53340;BME280;46212;50.258;19.062;2023-11-19T01:36:00;98913.72;;;0.99;90.12
53340;BME280;46212;50.258;19.062;2023-11-19T01:38:25;98901.31;;;1.01;90.48
53340;BME280;46212;50.258;19.062;2023-11-19T01:40:56;98904.03;;;1.05;90.42
53340;BME280;46212;50.258;19.062;2023-11-19T01:43:35;98906.34;;;0.99;90.36
53340;BME280;46212;50.258;19.062;2023-11-19T01:46:01;98916.78;;;0.83;90.71
53340;BME280;46212;50.258;19.062;2023-11-19T01:48:29;98897.72;;;0.80;91.00
53340;BME280;46212;50.258;19.062;2023-11-19T01:50:55;98884.53;;;0.75;91.22
53340;BME280;46212;50.258;19.062;2023-11-19T01:53:22;98876.31;;;0.57;92.01
53340;BME280;46212;50.258;19.062;2023-11-19T01:55:48;98872.06;;;0.63;92.42
53340;BME280;46212;50.258;19.062;2023-11-19T01:58:14;98877.50;;;0.60;92.09
53340;BME280;46212;50.258;19.062;2023-11-19T02:00:40;98869.63;;;0.37;92.79
53340;BME280;46212;50.258;19.062;2023-11-19T02:03:06;98864.19;;;0.33;92.96
53340;BME280;46212;50.258;19.062;2023-11-19T02:05:35;98863.38;;;0.29;93.35
53340;BME280;46212;50.258;19.062;2023-11-19T02:08:01;98850.19;;;0.28;93.21
53340;BME280;46212;50.258;19.062;2023-11-19T02:10:26;98838.56;;;0.31;93.35
53340;BME280;46212;50.258;19.062;2023-11-19T02:12:52;98836.66;;;0.35;93.54
53340;BME280;46212;50.258;19.062;2023-11-19T02:15:17;98827.34;;;0.43;93.22
53340;BME280;46212;50.258;19.062;2023-11-19T02:17:49;98823.47;;;0.40;92.88
53340;BME280;46212;50.258;19.062;2023-11-19T02:20:15;98821.09;;;0.35;93.15
53340;BME280;46212;50.258;19.062;2023-11-19T02:22:40;98803.22;;;0.27;93.49
53340;BME280;46212;50.258;19.062;2023-11-19T02:25:18;98790.41;;;0.21;93.83
53340;BME280;46212;50.258;19.062;2023-11-19T02:27:58;98776.44;;;0.19;94.07
53340;BME280;46212;50.258;19.062;2023-11-19T02:30:25;98774.84;;;0.14;93.95
53340;BME280;46212;50.258;19.062;2023-11-19T02:32:58;98778.31;;;0.08;94.35
53340;BME280;46212;50.258;19.062;2023-11-19T02:35:27;98779.88;;;0.05;94.59
53340;BME280;46212;50.258;19.062;2023-11-19T02:37:54;98777.91;;;0.02;94.47
53340;BME280;46212;50.258;19.062;2023-11-19T02:40:19;98769.34;;;-0.07;94.58
53340;BME280;46212;50.258;19.062;2023-11-19T02:42:45;98770.03;;;-0.21;94.99
53340;BME280;46212;50.258;19.062;2023-11-19T02:45:10;98756.88;;;-0.15;95.40
53340;BME280;46212;50.258;19.062;2023-11-19T02:47:42;98749.94;;;-0.06;95.04
53340;BME280;46212;50.258;19.062;2023-11-19T02:50:11;98742.16;;;-0.14;95.12
53340;BME280;46212;50.258;19.062;2023-11-19T02:52:48;98724.72;;;-0.13;95.11
53340;BME280;46212;50.258;19.062;2023-11-19T02:55:14;98717.72;;;-0.18;94.93
53340;BME280;46212;50.258;19.062;2023-11-19T02:57:40;98729.72;;;-0.22;95.10
53340;BME280;46212;50.258;19.062;2023-11-19T03:00:17;98730.84;;;-0.30;95.31
53340;BME280;46212;50.258;19.062;2023-11-19T03:02:44;98723.81;;;-0.35;95.71
53340;BME280;46212;50.258;19.062;2023-11-19T03:05:14;98714.91;;;-0.42;96.26
53340;BME280;46212;50.258;19.062;2023-11-19T03:07:43;98712.22;;;-0.39;95.98
53340;BME280;46212;50.258;19.062;2023-11-19T03:10:12;98723.81;;;-0.35;96.05
53340;BME280;46212;50.258;19.062;2023-11-19T03:12:41;98729.59;;;-0.47;96.20
53340;BME280;46212;50.258;19.062;2023-11-19T03:15:07;98732.31;;;-0.47;96.55
53340;BME280;46212;50.258;19.062;2023-11-19T03:17:43;98734.25;;;-0.44;96.42
53340;BME280;46212;50.258;19.062;2023-11-19T03:20:11;98724.56;;;-0.45;96.50
53340;BME280;46212;50.258;19.062;2023-11-19T03:22:40;98715.97;;;-0.61;96.79
53340;BME280;46212;50.258;19.062;2023-11-19T03:25:07;98709.81;;;-0.51;96.51
53340;BME280;46212;50.258;19.062;2023-11-19T03:27:34;98698.16;;;-0.59;96.75
53340;BME280;46212;50.258;19.062;2023-11-19T03:30:01;98694.28;;;-0.50;96.51
53340;BME280;46212;50.258;19.062;2023-11-19T03:32:26;98696.28;;;-0.40;96.46
53340;BME280;46212;50.258;19.062;2023-11-19T03:34:52;98688.06;;;-0.58;96.15
53340;BME280;46212;50.258;19.062;2023-11-19T03:37:17;98700.06;;;-0.59;96.33
53340;BME280;46212;50.258;19.062;2023-11-19T03:39:43;98688.06;;;-0.58;96.38
53340;BME280;46212;50.258;19.062;2023-11-19T03:42:08;98676.06;;;-0.61;96.16
53340;BME280;46212;50.258;19.062;2023-11-19T03:44:34;98685.72;;;-0.63;96.62
53340;BME280;46212;50.258;19.062;2023-11-19T03:46:59;98681.81;;;-0.69;97.15
53340;BME280;46212;50.258;19.062;2023-11-19T03:49:24;98655.44;;;-0.72;97.28
53340;BME280;46212;50.258;19.062;2023-11-19T03:51:50;98646.63;;;-0.59;97.46
53340;BME280;46212;50.258;19.062;2023-11-19T03:54:15;98645.09;;;-0.52;97.19
53340;BME280;46212;50.258;19.062;2023-11-19T03:56:41;98633.84;;;-0.55;96.52
53340;BME280;46212;50.258;19.062;2023-11-19T03:59:06;98637.34;;;-0.47;96.52
53340;BME280;46212;50.258;19.062;2023-11-19T04:01:32;98636.25;;;-0.35;96.81
53340;BME280;46212;50.258;19.062;2023-11-19T04:03:57;98630.41;;;-0.41;96.65
53340;BME280;46212;50.258;19.062;2023-11-19T04:06:22;98618.38;;;-0.43;96.58
53340;BME280;46212;50.258;19.062;2023-11-19T04:08:48;98614.50;;;-0.42;96.76
53340;BME280;46212;50.258;19.062;2023-11-19T04:11:13;98617.66;;;-0.33;96.57
53340;BME280;46212;50.258;19.062;2023-11-19T04:13:38;98604.84;;;-0.36;96.61
53340;BME280;46212;50.258;19.062;2023-11-19T04:16:04;98608.72;;;-0.37;96.74
53340;BME280;46212;50.258;19.062;2023-11-19T04:18:29;98619.91;;;-0.49;97.04
53340;BME280;46212;50.258;19.062;2023-11-19T04:20:55;98626.16;;;-0.38;97.56
53340;BME280;46212;50.258;19.062;2023-11-19T04:23:21;98624.59;;;-0.39;97.31
53340;BME280;46212;50.258;19.062;2023-11-19T04:25:46;98608.28;;;-0.46;97.54
53340;BME280;46212;50.258;19.062;2023-11-19T04:28:12;98607.16;;;-0.45;97.42
53340;BME280;46212;50.258;19.062;2023-11-19T04:30:37;98602.84;;;-0.54;97.34
53340;BME280;46212;50.258;19.062;2023-11-19T04:33:03;98614.88;;;-0.55;97.60
53340;BME280;46212;50.258;19.062;2023-11-19T04:35:28;98611.38;;;-0.55;98.19
53340;BME280;46212;50.258;19.062;2023-11-19T04:37:53;98595.09;;;-0.55;98.10
53340;BME280;46212;50.258;19.062;2023-11-19T04:40:19;98583.09;;;-0.50;97.91
53340;BME280;46212;50.258;19.062;2023-11-19T04:42:47;98593.16;;;-0.58;97.95
53340;BME280;46212;50.258;19.062;2023-11-19T04:45:13;98596.56;;;-0.72;98.31
53340;BME280;46212;50.258;19.062;2023-11-19T04:47:38;98581.47;;;-0.69;98.70
53340;BME280;46212;50.258;19.062;2023-11-19T04:50:04;98578.78;;;-0.62;98.23
53340;BME280;46212;50.258;19.062;2023-11-19T04:52:30;98581.94;;;-0.49;98.05
53340;BME280;46212;50.258;19.062;2023-11-19T04:54:55;98586.25;;;-0.41;97.58
53340;BME280;46212;50.258;19.062;2023-11-19T04:57:20;98586.25;;;-0.31;97.19
53340;BME280;46212;50.258;19.062;2023-11-19T04:59:46;98580.44;;;-0.29;96.76
53340;BME280;46212;50.258;19.062;2023-11-19T05:02:11;98587.81;;;-0.26;96.28
53340;BME280;46212;50.258;19.062;2023-11-19T05:04:41;98583.53;;;-0.34;96.11
53340;BME280;46212;50.258;19.062;2023-11-19T05:07:07;98579.25;;;-0.39;96.67
53340;BME280;46212;50.258;19.062;2023-11-19T05:09:33;98573.03;;;-0.43;97.01
53340;BME280;46212;50.258;19.062;2023-11-19T05:11:58;98576.13;;;-0.41;96.62
53340;BME280;46212;50.258;19.062;2023-11-19T05:14:23;98571.44;;;-0.58;96.96
53340;BME280;46212;50.258;19.062;2023-11-19T05:16:49;98553.28;;;-0.43;97.04
53340;BME280;46212;50.258;19.062;2023-11-19T05:19:15;98559.94;;;-0.16;97.15
53340;BME280;46212;50.258;19.062;2023-11-19T05:21:43;98539.00;;;-0.09;96.77
53340;BME280;46212;50.258;19.062;2023-11-19T05:24:09;98530.84;;;-0.12;96.59
53340;BME280;46212;50.258;19.062;2023-11-19T05:26:34;98530.09;;;0.05;96.52
53340;BME280;46212;50.258;19.062;2023-11-19T05:28:59;98533.19;;;0.00;96.22
53340;BME280;46212;50.258;19.062;2023-11-19T05:31:25;98516.91;;;-0.07;96.33
53340;BME280;46212;50.258;19.062;2023-11-19T05:33:50;98520.78;;;-0.08;96.74
53340;BME280;46212;50.258;19.062;2023-11-19T05:36:15;98509.53;;;-0.10;96.58
53340;BME280;46212;50.258;19.062;2023-11-19T05:38:41;98504.09;;;-0.21;97.04
53340;BME280;46212;50.258;19.062;2023-11-19T05:41:06;98504.84;;;-0.24;97.02
53340;BME280;46212;50.258;19.062;2023-11-19T05:43:32;98487.03;;;-0.32;97.33
53340;BME280;46212;50.258;19.062;2023-11-19T05:45:58;98478.50;;;-0.30;97.33
53340;BME280;46212;50.258;19.062;2023-11-19T05:48:26;98490.13;;;-0.30;97.71
53340;BME280;46212;50.258;19.062;2023-11-19T05:50:51;98490.13;;;-0.26;97.80
53340;BME280;46212;50.258;19.062;2023-11-19T05:53:17;98509.13;;;-0.23;97.70
53340;BME280;46212;50.258;19.062;2023-11-19T05:55:42;98511.84;;;-0.23;98.00
53340;BME280;46212;50.258;19.062;2023-11-19T05:58:15;98508.38;;;-0.16;97.73
53340;BME280;46212;50.258;19.062;2023-11-19T06:00:41;98512.22;;;-0.21;97.62
53340;BME280;46212;50.258;19.062;2023-11-19T06:03:09;98508.38;;;-0.20;97.99
53340;BME280;46212;50.258;19.062;2023-11-19T06:05:34;98520.75;;;-0.15;98.15
53340;BME280;46212;50.258;19.062;2023-11-19T06:08:00;98524.66;;;-0.06;98.20
53340;BME280;46212;50.258;19.062;2023-11-19T06:10:25;98516.50;;;-0.09;98.52
53340;BME280;46212;50.258;19.062;2023-11-19T06:12:59;98516.50;;;-0.13;99.10
53340;BME280;46212;50.258;19.062;2023-11-19T06:15:30;98507.19;;;-0.15;99.74
53340;BME280;46212;50.258;19.062;2023-11-19T06:17:55;98524.25;;;0.10;99.87
53340;BME280;46212;50.258;19.062;2023-11-19T06:20:23;98525.81;;;0.11;99.88
53340;BME280;46212;50.258;19.062;2023-11-19T06:22:48;98507.59;;;0.19;99.80
53340;BME280;46212;50.258;19.062;2023-11-19T06:25:14;98502.16;;;0.19;99.84
53340;BME280;46212;50.258;19.062;2023-11-19T06:27:42;98500.22;;;0.16;100.00
53340;BME280;46212;50.258;19.062;2023-11-19T06:30:08;98496.31;;;0.31;100.00
53340;BME280;46212;50.258;19.062;2023-11-19T06:32:34;98490.47;;;0.39;100.00
53340;BME280;46212;50.258;19.062;2023-11-19T06:34:59;98474.59;;;0.27;100.00
53340;BME280;46212;50.258;19.062;2023-11-19T06:37:25;98471.09;;;0.37;100.00
53340;BME280;46212;50.258;19.062;2023-11-19T06:39:50;98462.53;;;0.39;100.00
53340;BME280;46212;50.258;19.062;2023-11-19T06:42:15;98457.88;;;0.43;100.00
53340;BME280;46212;50.258;19.062;2023-11-19T06:44:41;98450.09;;;0.48;100.00
53340;BME280;46212;50.258;19.062;2023-11-19T06:47:06;98445.41;;;0.63;100.00
53340;BME280;46212;50.258;19.062;2023-11-19T06:49:32;98445.34;;;0.81;99.29
53340;BME280;46212;50.258;19.062;2023-11-19T06:51:58;98437.16;;;0.84;98.70
53340;BME280;46212;50.258;19.062;2023-11-19T06:54:23;98448.03;;;0.91;98.72
53340;BME280;46212;50.258;19.062;2023-11-19T06:56:49;98436.72;;;0.93;98.72
53340;BME280;46212;50.258;19.062;2023-11-19T06:59:14;98433.22;;;0.96;98.79
53340;BME280;46212;50.258;19.062;2023-11-19T07:01:39;98434.03;;;0.93;98.26
53340;BME280;46212;50.258;19.062;2023-11-19T07:04:08;98418.16;;;0.81;98.74
53340;BME280;46212;50.258;19.062;2023-11-19T07:06:35;98424.75;;;0.83;99.18
53340;BME280;46212;50.258;19.062;2023-11-19T07:09:02;98445.28;;;0.95;98.96
53340;BME280;46212;50.258;19.062;2023-11-19T07:11:41;98444.84;;;1.03;98.76
53340;BME280;46212;50.258;19.062;2023-11-19T07:14:07;98427.00;;;0.99;98.58
53340;BME280;46212;50.258;19.062;2023-11-19T07:16:33;98428.53;;;1.07;98.45
53340;BME280;46212;50.258;19.062;2023-11-19T07:19:02;98429.69;;;1.06;98.35
53340;BME280;46212;50.258;19.062;2023-11-19T07:21:28;98411.38;;;1.17;98.33
53340;BME280;46212;50.258;19.062;2023-11-19T07:23:56;98421.38;;;1.27;97.55
53340;BME280;46212;50.258;19.062;2023-11-19T07:26:22;98428.81;;;1.23;97.63
53340;BME280;46212;50.258;19.062;2023-11-19T07:28:48;98418.75;;;1.20;97.56
53340;BME280;46212;50.258;19.062;2023-11-19T07:31:14;98403.97;;;1.18;97.82
53340;BME280;46212;50.258;19.062;2023-11-19T07:33:40;98417.13;;;1.30;97.82
53340;BME280;46212;50.258;19.062;2023-11-19T07:36:11;98425.59;;;1.42;97.40
53340;BME280;46212;50.258;19.062;2023-11-19T07:38:36;98419.38;;;1.38;97.00
53340;BME280;46212;50.258;19.062;2023-11-19T07:41:02;98413.16;;;1.41;97.04
53340;BME280;46212;50.258;19.062;2023-11-19T07:43:27;98411.19;;;1.45;97.01
53340;BME280;46212;50.258;19.062;2023-11-19T07:45:53;98391.75;;;1.43;96.75
53340;BME280;46212;50.258;19.062;2023-11-19T07:48:18;98401.41;;;1.51;96.74
53340;BME280;46212;50.258;19.062;2023-11-19T07:50:51;98393.13;;;1.66;96.58
53340;BME280;46212;50.258;19.062;2023-11-19T07:53:17;98400.47;;;1.72;96.10
53340;BME280;46212;50.258;19.062;2023-11-19T07:55:42;98376.28;;;1.81;95.67
53340;BME280;46212;50.258;19.062;2023-11-19T07:58:10;98375.91;;;1.79;95.99
53340;BME280;46212;50.258;19.062;2023-11-19T08:00:35;98363.31;;;1.96;95.62
53340;BME280;46212;50.258;19.062;2023-11-19T08:03:00;98364.94;;;1.90;94.68
53340;BME280;46212;50.258;19.062;2023-11-19T08:05:26;98354.44;;;1.88;94.72
53340;BME280;46212;50.258;19.062;2023-11-19T08:07:51;98341.22;;;1.87;94.55
53340;BME280;46212;50.258;19.062;2023-11-19T08:10:21;98336.06;;;1.96;94.33
53340;BME280;46212;50.258;19.062;2023-11-19T08:12:46;98335.44;;;2.19;93.11
53340;BME280;46212;50.258;19.062;2023-11-19T08:15:12;98349.53;;;2.10;93.08
53340;BME280;46212;50.258;19.062;2023-11-19T08:17:37;98345.28;;;2.09;93.41
53340;BME280;46212;50.258;19.062;2023-11-19T08:20:03;98345.31;;;2.05;93.25
53340;BME280;46212;50.258;19.062;2023-11-19T08:22:30;98350.63;;;2.16;93.02
53340;BME280;46212;50.258;19.062;2023-11-19T08:24:55;98340.94;;;2.15;93.05
53340;BME280;46212;50.258;19.062;2023-11-19T08:27:21;98338.59;;;2.13;93.17
53340;BME280;46212;50.258;19.062;2023-11-19T08:29:53;98352.03;;;2.31;92.34
53340;BME280;46212;50.258;19.062;2023-11-19T08:32:18;98327.78;;;2.06;92.11
53340;BME280;46212;50.258;19.062;2023-11-19T08:34:44;98346.38;;;2.15;92.74
53340;BME280;46212;50.258;19.062;2023-11-19T08:37:09;98317.97;;;2.12;92.82
53340;BME280;46212;50.258;19.062;2023-11-19T08:39:35;98321.19;;;2.04;93.13
53340;BME280;46212;50.258;19.062;2023-11-19T08:42:02;98338.84;;;2.26;93.86
53340;BME280;46212;50.258;19.062;2023-11-19T08:44:28;98343.00;;;2.38;93.54
53340;BME280;46212;50.258;19.062;2023-11-19T08:46:53;98325.94;;;2.34;93.29
53340;BME280;46212;50.258;19.062;2023-11-19T08:49:18;98318.97;;;2.29;92.33
53340;BME280;46212;50.258;19.062;2023-11-19T08:51:44;98315.09;;;2.27;92.26
53340;BME280;46212;50.258;19.062;2023-11-19T08:54:10;98327.34;;;2.45;92.18
53340;BME280;46212;50.258;19.062;2023-11-19T08:56:36;98325.03;;;2.44;91.95
53340;BME280;46212;50.258;19.062;2023-11-19T08:59:02;98309.72;;;2.53;91.24
53340;BME280;46212;50.258;19.062;2023-11-19T09:01:27;98309.03;;;2.46;91.23
53340;BME280;46212;50.258;19.062;2023-11-19T09:03:53;98296.00;;;2.30;91.47
53340;BME280;46212;50.258;19.062;2023-11-19T09:06:19;98284.31;;;2.30;91.97
53340;BME280;46212;50.258;19.062;2023-11-19T09:08:44;98288.56;;;2.34;92.04
53340;BME280;46212;50.258;19.062;2023-11-19T09:11:10;98282.31;;;2.34;91.97
53340;BME280;46212;50.258;19.062;2023-11-19T09:13:35;98268.06;;;2.53;91.68
53340;BME280;46212;50.258;19.062;2023-11-19T09:16:01;98263.31;;;2.57;91.43
53340;BME280;46212;50.258;19.062;2023-11-19T09:18:29;98259.94;;;2.49;91.63
53340;BME280;46212;50.258;19.062;2023-11-19T09:20:55;98262.00;;;2.68;91.06
53340;BME280;46212;50.258;19.062;2023-11-19T09:23:20;98267.25;;;2.56;91.08
53340;BME280;46212;50.258;19.062;2023-11-19T09:25:46;98264.88;;;2.58;91.41
53340;BME280;46212;50.258;19.062;2023-11-19T09:28:11;98271.19;;;2.51;91.20
53340;BME280;46212;50.258;19.062;2023-11-19T09:30:36;98259.19;;;2.45;91.41
53340;BME280;46212;50.258;19.062;2023-11-19T09:33:02;98246.34;;;2.46;91.57
53340;BME280;46212;50.258;19.062;2023-11-19T09:35:27;98254.91;;;2.75;91.42
53340;BME280;46212;50.258;19.062;2023-11-19T09:37:53;98249.06;;;2.99;90.33
53340;BME280;46212;50.258;19.062;2023-11-19T09:40:18;98248.38;;;2.92;90.38
53340;BME280;46212;50.258;19.062;2023-11-19T09:42:44;98235.53;;;2.92;90.00
53340;BME280;46212;50.258;19.062;2023-11-19T09:45:16;98226.22;;;2.90;89.73
53340;BME280;46212;50.258;19.062;2023-11-19T09:47:44;98207.84;;;2.94;89.33
53340;BME280;46212;50.258;19.062;2023-11-19T09:50:21;98208.81;;;3.07;89.23
53340;BME280;46212;50.258;19.062;2023-11-19T09:52:47;98193.25;;;3.27;88.23
53340;BME280;46212;50.258;19.062;2023-11-19T09:55:13;98185.53;;;3.22;88.63
53340;BME280;46212;50.258;19.062;2023-11-19T09:57:40;98190.38;;;3.34;88.29
53340;BME280;46212;50.258;19.062;2023-11-19T10:00:07;98186.97;;;3.50;87.63
53340;BME280;46212;50.258;19.062;2023-11-19T10:02:34;98175.34;;;3.46;87.42
53340;BME280;46212;50.258;19.062;2023-11-19T10:05:05;98172.94;;;3.51;87.33
53340;BME280;46212;50.258;19.062;2023-11-19T10:07:32;98160.66;;;3.59;87.52
53340;BME280;46212;50.258;19.062;2023-11-19T10:09:59;98159.13;;;3.58;86.63
53340;BME280;46212;50.258;19.062;2023-11-19T10:12:26;98154.50;;;3.75;86.29
53340;BME280;46212;50.258;19.062;2023-11-19T10:14:53;98151.13;;;3.87;85.81
53340;BME280;46212;50.258;19.062;2023-11-19T10:17:20;98141.25;;;3.93;85.23
53340;BME280;46212;50.258;19.062;2023-11-19T10:19:45;98148.38;;;4.07;84.99
53340;BME280;46212;50.258;19.062;2023-11-19T10:22:11;98148.28;;;4.10;85.38
53340;BME280;46212;50.258;19.062;2023-11-19T10:24:36;98142.56;;;4.05;85.67
53340;BME280;46212;50.258;19.062;2023-11-19T10:27:06;98136.56;;;3.94;85.56
53340;BME280;46212;50.258;19.062;2023-11-19T10:29:36;98122.88;;;3.94;84.79
53340;BME280;46212;50.258;19.062;2023-11-19T10:32:01;98117.88;;;3.92;84.94
53340;BME280;46212;50.258;19.062;2023-11-19T10:34:27;98115.34;;;3.82;84.61
53340;BME280;46212;50.258;19.062;2023-11-19T10:36:53;98110.72;;;3.79;84.88
53340;BME280;46212;50.258;19.062;2023-11-19T10:39:18;98116.78;;;3.70;83.44
53340;BME280;46212;50.258;19.062;2023-11-19T10:41:43;98104.31;;;3.69;84.40
53340;BME280;46212;50.258;19.062;2023-11-19T10:44:09;98109.13;;;3.81;83.93
53340;BME280;46212;50.258;19.062;2023-11-19T10:46:39;98085.75;;;3.60;83.66
53340;BME280;46212;50.258;19.062;2023-11-19T10:49:05;98078.53;;;3.70;84.10
53340;BME280;46212;50.258;19.062;2023-11-19T10:51:32;98082.94;;;3.84;83.27
53340;BME280;46212;50.258;19.062;2023-11-19T10:54:05;98071.53;;;3.69;83.21
53340;BME280;46212;50.258;19.062;2023-11-19T10:56:31;98062.09;;;3.54;84.01
53340;BME280;46212;50.258;19.062;2023-11-19T10:58:59;98055.38;;;3.58;84.93
53340;BME280;46212;50.258;19.062;2023-11-19T11:01:27;98058.63;;;3.34;85.03
53340;BME280;46212;50.258;19.062;2023-11-19T11:03:59;98062.47;;;3.36;85.89
53340;BME280;46212;50.258;19.062;2023-11-19T11:06:26;98071.63;;;3.46;86.01
53340;BME280;46212;50.258;19.062;2023-11-19T11:08:53;98059.72;;;3.36;87.03
53340;BME280;46212;50.258;19.062;2023-11-19T11:11:19;98053.59;;;3.32;87.67
53340;BME280;46212;50.258;19.062;2023-11-19T11:13:49;98058.91;;;3.39;87.71
53340;BME280;46212;50.258;19.062;2023-11-19T11:16:15;98050.94;;;3.48;87.24
53340;BME280;46212;50.258;19.062;2023-11-19T11:18:44;98049.03;;;3.45;88.48
53340;BME280;46212;50.258;19.062;2023-11-19T11:21:13;98044.50;;;3.39;90.01
53340;BME280;46212;50.258;19.062;2023-11-19T11:23:56;98039.50;;;3.14;90.57
53340;BME280;46212;50.258;19.062;2023-11-19T11:29:37;98032.41;;;3.20;90.91
53340;BME280;46212;50.258;19.062;2023-11-19T11:32:43;98013.78;;;3.15;90.51
53340;BME280;46212;50.258;19.062;2023-11-19T11:37:47;98000.78;;;3.03;91.86
53340;BME280;46212;50.258;19.062;2023-11-19T11:40:15;98008.53;;;2.85;93.09
53340;BME280;46212;50.258;19.062;2023-11-19T11:42:41;97999.06;;;2.69;94.26
53340;BME280;46212;50.258;19.062;2023-11-19T11:45:14;97998.00;;;2.63;94.65
53340;BME280;46212;50.258;19.062;2023-11-19T11:55:28;97985.44;;;2.69;96.52
53340;BME280;46212;50.258;19.062;2023-11-19T11:57:56;97981.41;;;2.78;96.03
53340;BME280;46212;50.258;19.062;2023-11-19T12:00:32;97982.94;;;2.59;95.24
53340;BME280;46212;50.258;19.062;2023-11-19T12:03:02;97980.75;;;2.50;95.62
53340;BME280;46212;50.258;19.062;2023-11-19T12:05:29;97980.38;;;2.48;95.77
53340;BME280;46212;50.258;19.062;2023-11-19T12:07:56;97977.00;;;2.21;95.86
53340;BME280;46212;50.258;19.062;2023-11-19T12:10:24;97957.81;;;2.28;96.14
53340;BME280;46212;50.258;19.062;2023-11-19T12:12:52;97956.81;;;2.38;95.95
53340;BME280;46212;50.258;19.062;2023-11-19T12:15:18;97958.03;;;2.37;96.21
53340;BME280;46212;50.258;19.062;2023-11-19T12:17:49;97956.56;;;2.52;95.90
53340;BME280;46212;50.258;19.062;2023-11-19T12:20:16;97947.06;;;2.41;95.48
53340;BME280;46212;50.258;19.062;2023-11-19T12:22:43;97956.91;;;2.54;94.90
53340;BME280;46212;50.258;19.062;2023-11-19T12:25:13;97944.25;;;2.44;95.72
53340;BME280;46212;50.258;19.062;2023-11-19T12:27:42;97942.59;;;2.50;95.94
53340;BME280;46212;50.258;19.062;2023-11-19T12:30:08;97935.50;;;2.33;96.14
53340;BME280;46212;50.258;19.062;2023-11-19T12:32:41;97936.44;;;2.46;96.46
53340;BME280;46212;50.258;19.062;2023-11-19T12:35:11;97922.72;;;2.30;96.70
53340;BME280;46212;50.258;19.062;2023-11-19T12:37:47;97921.91;;;2.33;97.00
53340;BME280;46212;50.258;19.062;2023-11-19T12:40:15;97922.88;;;2.43;97.08
53340;BME280;46212;50.258;19.062;2023-11-19T12:42:41;97923.03;;;2.55;96.95
53340;BME280;46212;50.258;19.062;2023-11-19T12:45:07;97906.19;;;2.60;96.33
53340;BME280;46212;50.258;19.062;2023-11-19T12:47:35;97908.44;;;2.65;96.42
53340;BME280;46212;50.258;19.062;2023-11-19T12:50:02;97912.78;;;2.63;96.71
53340;BME280;46212;50.258;19.062;2023-11-19T12:52:27;97897.59;;;2.62;96.93
53340;BME280;46212;50.258;19.062;2023-11-19T12:54:52;97889.69;;;2.48;97.10
53340;BME280;46212;50.258;19.062;2023-11-19T12:57:18;97877.94;;;2.51;97.48
53340;BME280;46212;50.258;19.062;2023-11-19T12:59:55;97881.31;;;2.58;97.52
53340;BME280;46212;50.258;19.062;2023-11-19T13:02:44;97879.47;;;2.72;97.34
53340;BME280;46212;50.258;19.062;2023-11-19T13:05:29;97892.69;;;2.73;96.94
53340;BME280;46212;50.258;19.062;2023-11-19T13:08:09;97892.22;;;2.78;96.55
53340;BME280;46212;50.258;19.062;2023-11-19T13:10:53;97877.94;;;2.51;96.74